Time;durP1;ratioP1;P1;durP2;ratioP2;P2;SDS_P1;SDS_P2;PMS_P1;PMS_P2;Temp;Humidity;BMP_temperature;BMP_pressure;BME280_temperature;BME280_humidity;BME280_pressure;Samples;Min_cycle;Max_cycle;Signal;HPM_P1;HPM_P2
2021/05/20 00:02:14;;;;;;;;;;;;;;;14.26;72.20;98990.09;1691909;83;20181;-63
2021/05/20 00:04:41;;;;;;;;;;;;;;;14.23;72.25;98994.69;1691922;84;20173;-67
2021/05/20 00:07:08;;;;;;;;;;;;;;;14.24;72.21;98996.31;1690981;84;20262;-64
2021/05/20 00:09:35;;;;;;;;;;;;;;;14.24;72.21;98994.17;1669001;84;21039;-62
2021/05/20 00:12:03;;;;;;;;;;;;;;;14.27;72.17;98997.10;1691631;84;20210;-62
2021/05/20 00:14:29;;;;;;;;;;;;;;;14.29;71.96;99000.31;1691651;84;20182;-63
2021/05/20 00:16:58;;;;;;;;;;;;;;;14.26;71.90;98998.17;1691691;84;20710;-63
2021/05/20 00:19:24;;;;;;;;;;;;;;;14.26;71.95;99006.81;1691932;85;20249;-65
2021/05/20 00:21:51;;;;;;;;;;;;;;;14.28;71.83;99002.77;1691735;85;21592;-64
2021/05/20 00:24:17;;;;;;;;;;;;;;;14.23;71.75;99005.47;1691700;85;20566;-64
2021/05/20 00:26:44;;;;;;;;;;;;;;;14.16;71.86;99008.99;1630134;86;20158;-63
2021/05/20 00:29:11;;;;;;;;;;;;;;;14.07;72.12;99007.95;1671687;85;20218;-63
2021/05/20 00:31:38;;;;;;;;;;;;;;;14.11;72.22;99011.72;1657583;85;20243;-63
2021/05/20 00:34:05;;;;;;;;;;;;;;;14.13;72.15;99011.72;1676976;85;21698;-64
2021/05/20 00:36:32;;;;;;;;;;;;;;;14.10;72.08;99012.24;1679954;85;20262;-63
2021/05/20 00:38:59;;;;;;;;;;;;;;;14.07;72.17;99012.79;1680252;85;20207;-62
2021/05/20 00:41:25;;;;;;;;;;;;;;;14.08;72.22;99011.72;1677199;85;20191;-64
2021/05/20 00:43:52;;;;;;;;;;;;;;;14.10;72.18;99018.18;1653262;85;20174;-65
2021/05/20 00:46:20;;;;;;;;;;;;;;;14.09;72.14;99011.17;1678538;85;20563;-63
2021/05/20 00:48:47;;;;;;;;;;;;;;;14.09;72.09;99017.91;1656949;86;20169;-63
2021/05/20 00:51:13;;;;;;;;;;;;;;;14.05;72.09;99012.27;1656873;86;20257;-63
2021/05/20 00:53:40;;;;;;;;;;;;;;;14.01;72.13;99020.08;1660603;85;20148;-63
2021/05/20 00:56:08;;;;;;;;;;;;;;;14.04;72.12;99012.55;1656866;86;20217;-63
2021/05/20 00:58:35;;;;;;;;;;;;;;;14.02;72.04;99016.31;1657048;85;21093;-63
2021/05/20 01:01:01;;;;;;;;;;;;;;;13.96;72.17;99016.61;1656937;86;20189;-63
2021/05/20 01:03:28;;;;;;;;;;;;;;;13.96;72.14;99023.34;1653907;86;20656;-63
2021/05/20 01:05:55;;;;;;;;;;;;;;;13.94;72.15;99016.89;1656785;86;20168;-64
2021/05/20 01:08:22;;;;;;;;;;;;;;;13.97;72.20;99017.69;1656956;86;20176;-63
2021/05/20 01:10:49;;;;;;;;;;;;;;;13.96;72.05;99016.06;1656737;85;21816;-62
2021/05/20 01:13:16;;;;;;;;;;;;;;;13.97;72.04;99019.03;1636498;86;20205;-63
2021/05/20 01:15:42;;;;;;;;;;;;;;;13.97;71.97;99016.86;1656882;86;20171;-63
2021/05/20 01:18:09;;;;;;;;;;;;;;;13.92;71.95;99019.03;1656877;86;20250;-62
2021/05/20 01:20:41;;;;;;;;;;;;;;;13.90;71.98;99019.85;1654366;86;20145;-64
2021/05/20 01:23:10;;;;;;;;;;;;;;;13.80;72.11;99013.14;1656505;86;21661;-62
2021/05/20 01:25:38;;;;;;;;;;;;;;;13.77;72.28;99019.08;1656356;86;20156;-63
2021/05/20 01:28:09;;;;;;;;;;;;;;;13.75;72.37;99011.27;1656892;86;20189;-63
2021/05/20 01:30:37;;;;;;;;;;;;;;;13.75;72.52;99018.00;1656550;86;20349;-63
2021/05/20 01:33:04;;;;;;;;;;;;;;;13.74;72.54;99019.07;1656820;86;20553;-64
2021/05/20 01:35:31;;;;;;;;;;;;;;;13.72;72.68;99016.38;1656988;86;21131;-63
2021/05/20 01:40:52;;;;;;;;;;;;;;;13.69;72.99;99017.72;1654081;86;20185;-63
2021/05/20 01:43:19;;;;;;;;;;;;;;;13.63;72.91;99022.33;1656863;86;20153;-65
2021/05/20 01:45:53;;;;;;;;;;;;;;;13.55;73.09;99022.86;1638290;86;20231;-64
2021/05/20 01:48:17;;;;;;;;;;;;;;;13.47;73.05;99028.77;1669746;84;21108;-63
2021/05/20 01:50:44;;;;;;;;;;;;;;;13.42;73.25;99022.06;1675052;85;20167;-64
2021/05/20 01:53:10;;;;;;;;;;;;;;;13.39;73.25;99020.70;1675002;85;20147;-63
2021/05/20 01:55:37;;;;;;;;;;;;;;;13.37;73.26;99020.18;1674970;85;20166;-65
2021/05/20 01:58:04;;;;;;;;;;;;;;;13.36;73.19;99023.94;1675124;85;20630;-65
2021/05/20 02:00:30;;;;;;;;;;;;;;;13.34;73.36;99026.10;1674697;85;21640;-63
2021/05/20 02:02:57;;;;;;;;;;;;;;;13.39;73.30;99020.70;1674739;85;20383;-62
2021/05/20 02:05:24;;;;;;;;;;;;;;;13.42;73.13;99023.41;1675120;85;20194;-66
2021/05/20 02:07:51;;;;;;;;;;;;;;;13.45;73.11;99022.86;1671910;85;20618;-64
2021/05/20 02:10:17;;;;;;;;;;;;;;;13.48;73.05;99029.84;1674931;85;20234;-65
2021/05/20 02:12:44;;;;;;;;;;;;;;;13.53;72.99;99030.41;1675263;85;21115;-64
2021/05/20 02:15:11;;;;;;;;;;;;;;;13.54;72.88;99023.92;1674826;85;20171;-64
2021/05/20 02:17:38;;;;;;;;;;;;;;;13.58;72.87;99024.21;1675110;85;20221;-65
2021/05/20 02:20:07;;;;;;;;;;;;;;;13.62;72.81;99029.33;1673820;84;20178;-63
2021/05/20 02:22:34;;;;;;;;;;;;;;;13.66;72.78;99032.55;1674403;84;20259;-63
2021/05/20 02:25:03;;;;;;;;;;;;;;;13.70;72.58;99033.35;1674841;85;20536;-63
2021/05/20 02:27:30;;;;;;;;;;;;;;;13.66;72.59;99030.38;1674976;85;20222;-63
2021/05/20 02:29:57;;;;;;;;;;;;;;;13.69;72.60;99035.22;1674974;85;20211;-63
2021/05/20 02:32:23;;;;;;;;;;;;;;;13.72;72.63;99033.36;1674934;85;20170;-64
2021/05/20 02:34:50;;;;;;;;;;;;;;;13.76;72.49;99026.88;1674828;85;20230;-62
2021/05/20 02:37:16;;;;;;;;;;;;;;;13.74;72.23;99029.84;1672087;85;21063;-63
2021/05/20 02:39:43;;;;;;;;;;;;;;;13.64;72.22;99025.27;1675500;85;20187;-62
2021/05/20 02:42:10;;;;;;;;;;;;;;;13.58;72.39;99027.70;1674939;85;20246;-63
2021/05/20 02:44:37;;;;;;;;;;;;;;;13.49;72.53;99026.09;1674738;85;20912;-63
2021/05/20 02:47:03;;;;;;;;;;;;;;;13.52;72.64;99034.72;1675911;85;20565;-65
2021/05/20 02:49:30;;;;;;;;;;;;;;;13.53;72.59;99033.10;1688589;83;21663;-65
2021/05/20 02:51:57;;;;;;;;;;;;;;;13.56;72.66;99025.83;1688109;85;20239;-65
2021/05/20 02:54:23;;;;;;;;;;;;;;;13.60;72.52;99028.77;1685460;85;20182;-65
2021/05/20 02:56:50;;;;;;;;;;;;;;;13.57;72.35;99031.46;1683758;85;20154;-65
2021/05/20 02:59:17;;;;;;;;;;;;;;;13.52;72.31;99028.78;1687405;85;20619;-66
2021/05/20 03:01:45;;;;;;;;;;;;;;;13.46;72.40;99029.87;1687793;85;21096;-65
2021/05/20 03:04:12;;;;;;;;;;;;;;;13.42;72.50;99030.13;1688001;85;20614;-66
2021/05/20 03:06:39;;;;;;;;;;;;;;;13.39;72.72;99028.78;1688098;85;20194;-66
2021/05/20 03:09:07;;;;;;;;;;;;;;;13.36;72.89;99032.56;1687543;85;20625;-66
2021/05/20 03:11:34;;;;;;;;;;;;;;;13.40;73.00;99035.78;1687845;85;20169;-66
2021/05/20 03:14:01;;;;;;;;;;;;;;;13.39;73.02;99037.41;1688239;85;21126;-65
2021/05/20 03:16:28;;;;;;;;;;;;;;;13.44;73.23;99034.17;1687705;83;20171;-63
2021/05/20 03:18:54;;;;;;;;;;;;;;;13.49;73.16;99034.16;1687022;85;20170;-63
2021/05/20 03:21:21;;;;;;;;;;;;;;;13.57;72.87;99034.16;1679468;84;20190;-64
2021/05/20 03:23:49;;;;;;;;;;;;;;;13.56;72.43;99038.46;1699747;84;20557;-65
2021/05/20 03:26:16;;;;;;;;;;;;;;;13.54;72.56;99038.73;1700336;82;21058;-66
2021/05/20 03:28:43;;;;;;;;;;;;;;;13.54;72.40;99038.73;1699452;84;20190;-64
2021/05/20 03:31:11;;;;;;;;;;;;;;;13.51;72.35;99050.59;1699618;84;20162;-64
2021/05/20 03:33:40;;;;;;;;;;;;;;;13.45;72.23;99049.23;1699611;84;20173;-64
2021/05/20 03:36:06;;;;;;;;;;;;;;;13.42;72.18;99047.08;1670700;82;20226;-63
2021/05/20 03:38:33;;;;;;;;;;;;;;;13.45;72.03;99052.47;1699546;83;21139;-65
2021/05/20 03:41:02;;;;;;;;;;;;;;;13.48;72.00;99051.93;1699541;84;20225;-63
2021/05/20 03:43:33;;;;;;;;;;;;;;;13.53;71.81;99053.81;1699447;84;20209;-63
2021/05/20 03:45:59;;;;;;;;;;;;;;;13.53;71.67;99045.73;1699616;84;20554;-63
2021/05/20 03:48:26;;;;;;;;;;;;;;;13.54;71.52;99050.05;1686159;84;20611;-63
2021/05/20 03:50:54;;;;;;;;;;;;;;;13.54;71.41;99052.20;1652932;85;21633;-63
2021/05/20 03:53:21;;;;;;;;;;;;;;;13.56;71.40;99050.58;1672874;85;20159;-65
2021/05/20 03:55:49;;;;;;;;;;;;;;;13.62;71.35;99053.56;1675005;85;20518;-64
2021/05/20 03:58:16;;;;;;;;;;;;;;;13.70;71.41;99066.47;1673258;85;20147;-64
2021/05/20 04:00:43;;;;;;;;;;;;;;;13.77;71.18;99067.55;1674865;85;20575;-65
2021/05/20 04:03:10;;;;;;;;;;;;;;;13.80;70.72;99070.50;1674888;85;21782;-64
2021/05/20 04:05:37;;;;;;;;;;;;;;;13.83;70.68;99071.30;1672204;85;20151;-63
2021/05/20 04:08:04;;;;;;;;;;;;;;;13.85;70.35;99071.02;1675231;85;20206;-66
2021/05/20 04:10:32;;;;;;;;;;;;;;;13.83;69.97;99075.89;1673955;85;20226;-64
2021/05/20 04:12:59;;;;;;;;;;;;;;;13.82;69.91;99076.96;1674448;85;20576;-66
2021/05/20 04:15:26;;;;;;;;;;;;;;;13.81;69.72;99076.16;1674612;85;21735;-65
2021/05/20 04:17:53;;;;;;;;;;;;;;;13.81;69.75;99078.06;1674654;85;20158;-64
2021/05/20 04:20:20;;;;;;;;;;;;;;;13.82;69.72;99077.78;1655389;85;20190;-64
2021/05/20 04:22:46;;;;;;;;;;;;;;;13.84;69.45;99079.66;1671794;85;20171;-64
2021/05/20 04:25:13;;;;;;;;;;;;;;;13.88;69.31;99090.69;1675289;85;20239;-64
2021/05/20 04:27:41;;;;;;;;;;;;;;;13.87;69.32;99089.09;1674883;85;23322;-63
2021/05/20 04:30:10;;;;;;;;;;;;;;;13.92;69.32;99087.72;1675102;85;20186;-64
2021/05/20 04:32:36;;;;;;;;;;;;;;;13.91;68.96;99100.91;1675061;85;20231;-63
2021/05/20 04:35:04;;;;;;;;;;;;;;;13.89;68.83;99099.05;1674969;85;20166;-64
2021/05/20 04:37:30;;;;;;;;;;;;;;;13.86;68.72;99098.79;1675130;85;20587;-64
2021/05/20 04:39:57;;;;;;;;;;;;;;;13.79;68.70;99101.20;1655790;85;21204;-63
2021/05/20 04:42:24;;;;;;;;;;;;;;;13.73;68.76;99096.89;1674813;85;20194;-64
2021/05/20 04:44:50;;;;;;;;;;;;;;;13.71;68.84;99099.61;1674977;85;20170;-64
2021/05/20 04:47:17;;;;;;;;;;;;;;;13.69;69.09;99103.09;1675195;85;20187;-63
2021/05/20 04:49:44;;;;;;;;;;;;;;;13.70;69.14;99104.72;1671304;83;20267;-62
2021/05/20 04:52:11;;;;;;;;;;;;;;;13.75;68.89;99104.70;1698053;82;21120;-63
2021/05/20 04:54:37;;;;;;;;;;;;;;;13.76;68.70;99105.78;1701312;84;20173;-63
2021/05/20 04:57:05;;;;;;;;;;;;;;;13.79;68.54;99112.52;1701576;84;20173;-63
2021/05/20 04:59:31;;;;;;;;;;;;;;;13.83;68.50;99118.98;1701055;84;20169;-66
2021/05/20 05:01:58;;;;;;;;;;;;;;;13.88;68.16;99130.30;1701214;84;20260;-65
2021/05/20 05:04:24;;;;;;;;;;;;;;;13.86;67.79;99135.16;1670086;84;21119;-64
2021/05/20 05:06:51;;;;;;;;;;;;;;;13.80;67.56;99128.41;1701438;84;20558;-65
2021/05/20 05:09:18;;;;;;;;;;;;;;;13.74;67.73;99136.77;1700216;84;20181;-64
2021/05/20 05:11:45;;;;;;;;;;;;;;;13.73;68.02;99144.57;1701173;84;20218;-63
2021/05/20 05:14:12;;;;;;;;;;;;;;;13.72;68.10;99150.51;1701434;84;20288;-64
2021/05/20 05:16:39;;;;;;;;;;;;;;;13.74;68.22;99151.03;1701423;83;21798;-63
2021/05/20 05:19:05;;;;;;;;;;;;;;;13.78;68.08;99147.25;1701352;84;20606;-63
2021/05/20 05:21:32;;;;;;;;;;;;;;;13.80;68.08;99154.55;1701434;84;20189;-63
2021/05/20 05:23:59;;;;;;;;;;;;;;;13.81;68.17;99156.17;1701594;84;20165;-62
2021/05/20 05:26:26;;;;;;;;;;;;;;;13.82;67.86;99159.11;1701616;84;20177;-66
2021/05/20 05:28:53;;;;;;;;;;;;;;;13.82;67.84;99159.11;1670110;84;21102;-62
2021/05/20 05:31:26;;;;;;;;;;;;;;;13.82;67.36;99161.80;1701112;84;20261;-63
2021/05/20 05:33:49;;;;;;;;;;;;;;;13.80;67.40;99160.73;1698569;84;20169;-64
2021/05/20 05:36:16;;;;;;;;;;;;;;;13.82;67.65;99169.88;1701711;83;20282;-62
2021/05/20 05:38:42;;;;;;;;;;;;;;;13.85;67.68;99172.04;1701728;83;20185;-64
2021/05/20 05:41:09;;;;;;;;;;;;;;;13.87;67.54;99175.29;1701443;84;21121;-63
2021/05/20 05:43:36;;;;;;;;;;;;;;;13.84;67.38;99167.20;1704352;82;20189;-64
2021/05/20 05:46:03;;;;;;;;;;;;;;;13.85;67.32;99162.61;1672540;84;20153;-63
2021/05/20 05:48:30;;;;;;;;;;;;;;;13.85;67.07;99168.00;1697124;84;20315;-63
2021/05/20 05:50:57;;;;;;;;;;;;;;;13.80;67.20;99168.81;1698970;84;20258;-64
2021/05/20 05:53:24;;;;;;;;;;;;;;;13.84;67.28;99170.45;1683009;83;21184;-64
2021/05/20 05:55:52;;;;;;;;;;;;;;;13.90;67.22;99171.23;1685084;85;20158;-63
2021/05/20 05:58:20;;;;;;;;;;;;;;;13.95;67.13;99168.00;1684824;85;20159;-64
2021/05/20 06:00:46;;;;;;;;;;;;;;;14.01;66.99;99167.47;1685035;85;20245;-63
2021/05/20 06:03:14;;;;;;;;;;;;;;;14.07;66.91;99165.03;1662956;85;20174;-62
2021/05/20 06:05:41;;;;;;;;;;;;;;;14.14;66.84;99166.92;1684870;85;21746;-63
2021/05/20 06:08:08;;;;;;;;;;;;;;;14.22;66.57;99156.67;1684207;85;20158;-63
2021/05/20 06:10:36;;;;;;;;;;;;;;;14.27;66.33;99158.03;1678869;85;20238;-63
2021/05/20 06:13:04;;;;;;;;;;;;;;;14.32;66.02;99166.09;1655737;85;20259;-63
2021/05/20 06:15:31;;;;;;;;;;;;;;;14.43;65.88;99171.75;1675013;85;20171;-63
2021/05/20 06:17:58;;;;;;;;;;;;;;;14.49;65.55;99177.94;1675041;85;21104;-65
2021/05/20 06:20:25;;;;;;;;;;;;;;;14.57;65.53;99177.92;1674752;85;20175;-64
2021/05/20 06:22:53;;;;;;;;;;;;;;;14.70;65.08;99177.37;1674734;85;20746;-62
2021/05/20 06:25:21;;;;;;;;;;;;;;;14.85;65.00;99181.36;1673553;85;20589;-62
2021/05/20 06:27:48;;;;;;;;;;;;;;;15.12;64.36;99170.75;1675025;85;20190;-64
2021/05/20 06:30:16;;;;;;;;;;;;;;;15.46;63.52;99165.15;1674940;85;21025;-64
2021/05/20 06:32:43;;;;;;;;;;;;;;;15.79;62.99;99159.56;1675132;84;20239;-66
2021/05/20 06:35:10;;;;;;;;;;;;;;;16.11;61.85;99162.28;1674783;85;20238;-63
2021/05/20 06:37:37;;;;;;;;;;;;;;;16.41;61.50;99163.08;1674990;84;20176;-64
2021/05/20 06:40:05;;;;;;;;;;;;;;;16.74;60.56;99154.61;1674859;85;20191;-65
2021/05/20 06:42:32;;;;;;;;;;;;;;;17.03;59.13;99159.70;1675957;84;21098;-63
2021/05/20 06:44:59;;;;;;;;;;;;;;;17.22;57.93;99158.38;1674803;85;20135;-63
2021/05/20 06:47:25;;;;;;;;;;;;;;;17.32;56.43;99154.97;1655696;85;20191;-65
2021/05/20 06:49:52;;;;;;;;;;;;;;;17.33;56.26;99142.25;1674692;85;20271;-63
2021/05/20 06:52:19;;;;;;;;;;;;;;;17.33;56.08;99159.30;1675013;84;20289;-63
2021/05/20 06:54:46;;;;;;;;;;;;;;;17.38;55.61;99137.31;1674788;85;20439;-63
2021/05/20 06:57:21;;;;;;;;;;;;;;;17.34;54.41;99140.61;1674793;85;20199;-65
2021/05/20 06:59:58;;;;;;;;;;;;;;;17.20;54.65;99144.34;1674809;85;20215;-64
2021/05/20 07:02:25;;;;;;;;;;;;;;;17.09;54.53;99140.41;1637535;85;20191;-64
2021/05/20 07:04:52;;;;;;;;;;;;;;;17.02;55.03;99149.44;1674690;85;20203;-65
2021/05/20 07:07:19;;;;;;;;;;;;;;;17.02;54.38;99149.44;1674778;85;21121;-64
2021/05/20 07:09:45;;;;;;;;;;;;;;;17.08;55.17;99149.63;1674697;85;20222;-66
2021/05/20 07:12:32;;;;;;;;;;;;;;;17.19;54.14;99142.72;1674873;84;20178;-64
2021/05/20 07:15:01;;;;;;;;;;;;;;;17.22;54.44;99138.86;1719913;83;20556;-65
2021/05/20 07:17:28;;;;;;;;;;;;;;;17.36;54.75;99144.91;1719835;83;20147;-65
2021/05/20 07:19:55;;;;;;;;;;;;;;;17.42;54.65;99145.91;1720032;83;21132;-64
2021/05/20 07:22:22;;;;;;;;;;;;;;;17.51;54.51;99144.70;1716148;83;20199;-63
2021/05/20 07:24:49;;;;;;;;;;;;;;;17.60;54.46;99151.05;1719702;83;20242;-63
2021/05/20 07:27:16;;;;;;;;;;;;;;;17.76;54.18;99153.55;1699339;81;20374;-62
2021/05/20 07:29:42;;;;;;;;;;;;;;;17.95;54.08;99152.19;1719853;83;20571;-63
2021/05/20 07:32:16;;;;;;;;;;;;;;;18.09;53.11;99156.28;1716281;83;20969;-64
2021/05/20 07:34:38;;;;;;;;;;;;;;;18.13;52.23;99159.45;1716882;81;20231;-63
2021/05/20 07:37:07;;;;;;;;;;;;;;;18.17;52.23;99165.89;1734744;82;20204;-64
2021/05/20 07:39:34;;;;;;;;;;;;;;;18.20;51.30;99170.72;1749382;80;20176;-64
2021/05/20 07:42:00;;;;;;;;;;;;;;;18.13;50.90;99170.86;1749459;82;20180;-65
2021/05/20 07:44:27;;;;;;;;;;;;;;;18.09;51.72;99180.13;1743511;82;21094;-65
2021/05/20 07:46:56;;;;;;;;;;;;;;;18.10;50.77;99187.16;1748274;82;20205;-64
2021/05/20 07:49:25;;;;;;;;;;;;;;;18.04;50.19;99187.00;1749757;82;20145;-63
2021/05/20 07:51:52;;;;;;;;;;;;;;;17.91;51.26;99193.98;1749747;82;20176;-63
2021/05/20 07:54:19;;;;;;;;;;;;;;;18.03;51.35;99200.30;1745664;82;20230;-68
2021/05/20 07:56:45;;;;;;;;;;;;;;;18.19;51.00;99201.65;1750008;82;21136;-64
2021/05/20 07:59:12;;;;;;;;;;;;;;;18.34;50.64;99203.31;1748929;80;20168;-66
2021/05/20 08:01:50;;;;;;;;;;;;;;;18.46;51.69;99200.13;1744998;82;20172;-63
2021/05/20 08:04:12;;;;;;;;;;;;;;;18.64;51.98;99194.90;1748144;81;20156;-63
2021/05/20 08:06:42;;;;;;;;;;;;;;;18.74;50.25;99190.63;1746038;81;20560;-64
2021/05/20 08:09:22;;;;;;;;;;;;;;;18.80;49.93;99198.13;1749461;82;21052;-63
2021/05/20 08:11:43;;;;;;;;;;;;;;;18.85;49.23;99194.77;1748038;81;20160;-64
2021/05/20 08:14:10;;;;;;;;;;;;;;;18.85;49.70;99202.13;1769133;80;20227;-65
2021/05/20 08:16:37;;;;;;;;;;;;;;;18.85;49.60;99202.13;1780977;80;20179;-62
2021/05/20 08:19:04;;;;;;;;;;;;;;;18.82;50.43;99218.45;1781162;80;20140;-63
2021/05/20 08:21:30;;;;;;;;;;;;;;;18.77;50.17;99217.73;1780392;80;21097;-63
2021/05/20 08:23:57;;;;;;;;;;;;;;;18.68;49.23;99225.23;1778881;80;20179;-65
2021/05/20 08:26:27;;;;;;;;;;;;;;;18.64;50.17;99237.79;1780967;80;20553;-63
2021/05/20 08:28:55;;;;;;;;;;;;;;;18.72;50.36;99241.15;1780202;80;20168;-64
2021/05/20 08:31:21;;;;;;;;;;;;;;;18.81;50.63;99243.19;1780579;80;20187;-64
2021/05/20 08:33:48;;;;;;;;;;;;;;;18.89;49.38;99243.33;1772643;80;21091;-63
2021/05/20 08:36:16;;;;;;;;;;;;;;;18.96;49.00;99243.47;1777577;80;20155;-65
2021/05/20 08:38:42;;;;;;;;;;;;;;;18.98;48.28;99235.84;1780118;80;20163;-64
2021/05/20 08:41:09;;;;;;;;;;;;;;;18.97;48.58;99239.09;1780356;80;20147;-63
2021/05/20 08:43:38;;;;;;;;;;;;;;;19.00;48.30;99240.41;1781065;80;20208;-63
2021/05/20 08:46:05;;;;;;;;;;;;;;;19.04;48.71;99242.22;1780662;80;21113;-64
2021/05/20 08:48:32;;;;;;;;;;;;;;;19.08;48.15;99248.66;1780533;80;20223;-64
2021/05/20 08:51:01;;;;;;;;;;;;;;;19.02;47.34;99247.16;1780909;80;20132;-65
2021/05/20 08:53:28;;;;;;;;;;;;;;;18.92;47.54;99251.43;1780814;80;20147;-65
2021/05/20 08:55:56;;;;;;;;;;;;;;;18.91;47.18;99255.23;1780917;80;20190;-65
2021/05/20 08:58:25;;;;;;;;;;;;;;;18.92;47.65;99255.50;1781024;80;21089;-63
2021/05/20 09:00:53;;;;;;;;;;;;;;;18.91;48.76;99266.89;1780678;80;20179;-64
2021/05/20 09:03:20;;;;;;;;;;;;;;;18.88;48.70;99259.35;1779352;80;20172;-63
2021/05/20 09:05:46;;;;;;;;;;;;;;;18.84;47.73;99250.16;1780797;80;20227;-65
2021/05/20 09:08:16;;;;;;;;;;;;;;;18.80;46.94;99256.50;1781146;80;20179;-62
2021/05/20 09:10:44;;;;;;;;;;;;;;;18.73;46.22;99256.91;1781009;80;21127;-65
2021/05/20 09:13:19;;;;;;;;;;;;;;;18.65;47.67;99259.73;1781958;79;20183;-64
2021/05/20 09:15:48;;;;;;;;;;;;;;;18.61;47.79;99266.06;1781935;80;20175;-62
2021/05/20 09:18:22;;;;;;;;;;;;;;;18.60;48.55;99272.05;1783667;80;20552;-65
2021/05/20 09:20:51;;;;;;;;;;;;;;;18.68;48.63;99278.70;1785231;80;20233;-63
2021/05/20 09:23:19;;;;;;;;;;;;;;;18.77;48.15;99284.24;1783317;80;21544;-70
2021/05/20 09:25:47;;;;;;;;;;;;;;;18.78;47.72;99284.50;1784373;80;20171;-65
2021/05/20 09:28:15;;;;;;;;;;;;;;;18.75;47.94;99276.41;1786635;80;20199;-65
2021/05/20 09:30:43;;;;;;;;;;;;;;;18.81;48.27;99278.47;1785166;80;20259;-64
2021/05/20 09:33:11;;;;;;;;;;;;;;;18.90;47.84;99287.03;1779127;80;20163;-64
2021/05/20 09:35:39;;;;;;;;;;;;;;;18.97;48.49;99287.18;1784958;80;21102;-64
2021/05/20 09:38:19;;;;;;;;;;;;;;;19.04;46.85;99281.59;1785007;80;20143;-63
2021/05/20 09:40:57;;;;;;;;;;;;;;;19.04;46.72;99280.80;1784711;80;20163;-64
2021/05/20 09:43:31;;;;;;;;;;;;;;;18.96;45.99;99285.00;1784099;79;20267;-65
2021/05/20 09:46:02;;;;;;;;;;;;;;;18.90;46.78;99285.67;1784945;80;20531;-64
2021/05/20 09:48:36;;;;;;;;;;;;;;;18.83;47.43;99289.83;1784233;80;21117;-62
2021/05/20 09:51:02;;;;;;;;;;;;;;;18.78;47.73;99288.58;1785010;80;20195;-65
2021/05/20 09:53:29;;;;;;;;;;;;;;;18.67;48.03;99277.11;1780403;80;20182;-63
2021/05/20 09:56:01;;;;;;;;;;;;;;;18.62;47.77;99282.05;1780394;80;20205;-64
2021/05/20 09:58:30;;;;;;;;;;;;;;;18.60;47.05;99280.19;1784153;80;20155;-65
2021/05/20 10:00:59;;;;;;;;;;;;;;;18.51;47.12;99276.56;1782665;80;21649;-64
2021/05/20 10:03:28;;;;;;;;;;;;;;;18.47;47.90;99278.25;1779407;79;20749;-65
2021/05/20 10:05:59;;;;;;;;;;;;;;;18.54;48.63;99285.46;1785152;80;20143;-65
2021/05/20 10:08:29;;;;;;;;;;;;;;;18.63;46.57;99284.23;1785157;80;20270;-64
2021/05/20 10:10:56;;;;;;;;;;;;;;;18.69;47.38;99284.38;1785169;80;20210;-66
2021/05/20 10:13:24;;;;;;;;;;;;;;;18.74;47.46;99291.07;1779549;80;21106;-64
2021/05/20 10:15:51;;;;;;;;;;;;;;;18.78;46.10;99285.30;1785324;80;20135;-64
2021/05/20 10:18:23;;;;;;;;;;;;;;;18.73;46.01;99287.56;1785290;80;20544;-63
2021/05/20 10:20:53;;;;;;;;;;;;;;;18.60;46.53;99283.47;1784995;80;20200;-64
2021/05/20 10:23:21;;;;;;;;;;;;;;;18.48;47.79;99294.80;1784997;80;20191;-62
2021/05/20 10:25:49;;;;;;;;;;;;;;;18.45;47.81;99279.91;1785231;80;21095;-65
2021/05/20 10:28:16;;;;;;;;;;;;;;;18.51;48.51;99284.14;1785084;80;20195;-63
2021/05/20 10:30:44;;;;;;;;;;;;;;;18.63;48.59;99291.02;1784575;80;20156;-64
2021/05/20 10:33:11;;;;;;;;;;;;;;;18.71;46.85;99288.95;1760833;80;20223;-64
2021/05/20 10:35:54;;;;;;;;;;;;;;;18.74;46.19;99287.82;1785031;80;20576;-64
2021/05/20 10:38:31;;;;;;;;;;;;;;;18.74;46.81;99286.47;1783521;80;21090;-66
2021/05/20 10:41:13;;;;;;;;;;;;;;;18.82;47.00;99280.09;1784433;80;20552;-65
2021/05/20 10:43:41;;;;;;;;;;;;;;;18.91;46.46;99282.39;1781775;80;20183;-64
2021/05/20 10:46:12;;;;;;;;;;;;;;;18.99;46.94;99287.67;1785037;80;20219;-64
2021/05/20 10:48:56;;;;;;;;;;;;;;;19.04;45.37;99287.03;1784770;80;20175;-66
2021/05/20 10:51:26;;;;;;;;;;;;;;;19.02;44.97;99292.50;1782557;80;21087;-64
2021/05/20 10:54:06;;;;;;;;;;;;;;;18.96;46.06;99286.36;1780258;80;20251;-63
2021/05/20 10:56:40;;;;;;;;;;;;;;;18.95;46.68;99298.88;1781595;80;20124;-64
2021/05/20 10:59:37;;;;;;;;;;;;;;;18.97;46.84;99304.27;1784525;80;20657;-64
2021/05/20 11:02:04;;;;;;;;;;;;;;;19.02;46.54;99305.55;1784257;80;20156;-64
2021/05/20 11:04:36;;;;;;;;;;;;;;;19.00;45.75;99302.31;1784258;80;21073;-63
2021/05/20 11:07:02;;;;;;;;;;;;;;;18.93;45.53;99307.88;1784107;80;20536;-63
2021/05/20 11:09:43;;;;;;;;;;;;;;;18.80;46.52;99317.58;1784812;80;20187;-65
2021/05/20 11:12:11;;;;;;;;;;;;;;;18.74;46.34;99314.97;1784232;80;20159;-64
2021/05/20 11:14:38;;;;;;;;;;;;;;;18.71;46.39;99316.09;1758946;80;20468;-65
2021/05/20 11:17:36;;;;;;;;;;;;;;;18.67;47.18;99317.26;1780727;80;21048;-64
2021/05/20 11:20:25;;;;;;;;;;;;;;;18.73;48.02;99320.69;1778868;80;20533;-64
2021/05/20 11:23:23;;;;;;;;;;;;;;;18.82;47.06;99322.97;1770583;80;20155;-65
2021/05/20 11:26:03;;;;;;;;;;;;;;;18.82;46.81;99322.97;1777724;80;20135;-65
2021/05/20 11:28:30;;;;;;;;;;;;;;;18.81;47.04;99322.70;1746173;82;20145;-65
2021/05/20 11:31:00;;;;;;;;;;;;;;;18.86;46.93;99324.02;1716753;83;21607;-65
2021/05/20 11:33:30;;;;;;;;;;;;;;;18.94;45.71;99327.16;1747645;81;20236;-63
2021/05/20 11:38:31;;;;;;;;;;;;;;;19.04;46.31;99336.48;1718054;83;20228;-65
2021/05/20 11:41:14;;;;;;;;;;;;;;;19.10;45.95;99327.69;1749408;81;20181;-65
2021/05/20 11:43:41;;;;;;;;;;;;;;;19.09;45.72;99330.94;1744598;82;21147;-63
2021/05/20 11:46:20;;;;;;;;;;;;;;;19.03;45.02;99339.73;1718254;83;20172;-65
2021/05/20 11:49:23;;;;;;;;;;;;;;;18.97;46.00;99345.00;1729489;82;20226;-65
2021/05/20 11:51:55;;;;;;;;;;;;;;;18.97;45.68;99342.84;1748888;82;20232;-65
2021/05/20 11:54:26;;;;;;;;;;;;;;;18.91;45.87;99340.20;1747071;82;20573;-64
2021/05/20 11:56:54;;;;;;;;;;;;;;;18.85;44.72;99340.02;1715544;83;21062;-64
2021/05/20 11:59:39;;;;;;;;;;;;;;;18.86;46.21;99344.38;1718587;83;20187;-65
2021/05/20 12:02:19;;;;;;;;;;;;;;;18.96;45.87;99340.66;1718799;83;20207;-65
2021/05/20 12:04:46;;;;;;;;;;;;;;;19.08;44.59;99349.72;1718608;83;20259;-64
2021/05/20 12:07:20;;;;;;;;;;;;;;;19.16;44.10;99346.86;1718805;83;20156;-65
2021/05/20 12:09:47;;;;;;;;;;;;;;;19.21;44.51;99346.20;1718184;83;21095;-64
2021/05/20 12:12:16;;;;;;;;;;;;;;;19.26;44.84;99339.30;1732568;82;20163;-63
2021/05/20 12:14:44;;;;;;;;;;;;;;;19.34;44.95;99345.16;1715616;81;20144;-65
2021/05/20 12:17:14;;;;;;;;;;;;;;;19.33;44.31;99350.33;1749796;81;20129;-64
2021/05/20 12:19:43;;;;;;;;;;;;;;;19.31;45.14;99352.55;1747872;82;20245;-65
2021/05/20 12:22:15;;;;;;;;;;;;;;;19.30;44.98;99353.11;1782590;80;21095;-64
2021/05/20 12:24:45;;;;;;;;;;;;;;;19.34;44.90;99348.66;1747578;81;20158;-66
2021/05/20 12:27:23;;;;;;;;;;;;;;;19.33;45.17;99355.22;1748211;82;20649;-65
2021/05/20 12:29:58;;;;;;;;;;;;;;;19.27;45.75;99356.41;1744814;82;20232;-64
2021/05/20 12:32:30;;;;;;;;;;;;;;;19.22;46.05;99362.74;1748856;81;20177;-63
2021/05/20 12:35:18;;;;;;;;;;;;;;;19.20;45.92;99360.89;1715304;83;21697;-64
2021/05/20 12:37:49;;;;;;;;;;;;;;;19.25;45.81;99359.98;1781051;80;20267;-64
2021/05/20 12:40:41;;;;;;;;;;;;;;;19.32;45.46;99359.03;1782935;80;20195;-65
2021/05/20 12:43:23;;;;;;;;;;;;;;;19.38;44.84;99363.83;1783371;80;20175;-65
2021/05/20 12:45:54;;;;;;;;;;;;;;;19.42;45.12;99364.28;1783234;80;20159;-64
2021/05/20 12:48:32;;;;;;;;;;;;;;;19.50;45.06;99364.12;1783126;80;21701;-64
2021/05/20 12:51:08;;;;;;;;;;;;;;;19.58;45.71;99359.88;1782236;80;20210;-63
2021/05/20 12:53:37;;;;;;;;;;;;;;;19.66;44.19;99365.19;1749863;80;20163;-64
2021/05/20 12:56:07;;;;;;;;;;;;;;;19.70;43.60;99367.53;1782393;80;20160;-65
2021/05/20 12:59:03;;;;;;;;;;;;;;;19.72;44.64;99370.20;1783663;80;20155;-65
2021/05/20 13:01:43;;;;;;;;;;;;;;;19.73;44.63;99365.59;1781858;80;21097;-64
2021/05/20 13:04:12;;;;;;;;;;;;;;;19.69;44.96;99369.45;1780203;80;20226;-63